LPMA Informações do Aeroporto

Informações da Pista
Pista 05 Comprimento 9110 ft Largura 148 ft
Elevação 147 ft Limite 480 ft Heading 45
Pista 23 Comprimento 9110 ft Largura 148 ft
Elevação 192 ft Limite 490 ft Heading 225
Frequências do Aeroporto
Tipo APP Nome APP Frequência 119.2 MHZ
Tipo TWR Nome TWR Frequência 118.35 MHZ
Navaids do Aeroporto
Tipo VOR-DME Nome Madeira Frequência 112200 KHZ
Tipo NDB Nome Madeira Frequência 318 KHZ
Informações meteorológicas do aeroporto e NOTAM
ADDS - METARS form results

(0740 UTC 25 September 2020)
Data provider http://aviationweather.gov/metar/data/
 
METAR text: LPMA 250730Z 01008KT 9999 FEW014 23/19 Q1023
Conditions at: LPMA (FUNCHAL/MADEIRA , PT) observed 0730 UTC 25 September 2020
Temperature: 23.0°C (73°F)
Dewpoint: 19.0°C (66°F) [RH = 78%]
Pressure (altimeter): 30.21 inches Hg (1023.0 mb)
Winds: from the N (10 degrees) at 9 MPH (8 knots; 4.1 m/s)
Visibility: 6 or more miles (10+ km)
Ceiling: at least 12,000 feet AGL
Clouds: few clouds at 1400 feet AGL
Weather: no significant weather observed at this time

METAR text: LPMA 250700Z 01008KT 330V030 9999 FEW014 23/19 Q1023
Conditions at: LPMA (FUNCHAL/MADEIRA , PT) observed 0700 UTC 25 September 2020
Temperature: 23.0°C (73°F)
Dewpoint: 19.0°C (66°F) [RH = 78%]
Pressure (altimeter): 30.21 inches Hg (1023.0 mb)
Winds: from the N (10 degrees) at 9 MPH (8 knots; 4.1 m/s)
Visibility: 6 or more miles (10+ km)
Ceiling: at least 12,000 feet AGL
Clouds: few clouds at 1400 feet AGL
Weather: no significant weather observed at this time

Forecast for: LPMA (FUNCHAL/MADEIRA , PT)
Text: TAF LPMA 250500Z 2506/2606 03012KT 9999 SCT014
Forecast period: 0600 to 0900 UTC 25 September 2020
Forecast type: FROM: standard forecast or significant change
Winds: from the NNE (30 degrees) at 14 MPH (12 knots; 6.2 m/s)
Visibility: 6 or more miles (10+ km)
Ceiling: at least 12,000 feet AGL
Clouds: scattered clouds at 1400 feet AGL
Weather: no significant weather forecast for this period
Text: BECMG 2509/2512 SCT013 BKN030
Forecast period: 0900 UTC 25 September 2020 to 0600 UTC 26 September 2020
Forecast type: BECOMING: Conditions expected to become as follows by 1200 UTC 25 September 2020
Winds: from the NNE (30 degrees) at 14 MPH (12 knots; 6.2 m/s)
Visibility: 6 or more miles (10+ km)
Ceiling: 3000 feet AGL
Clouds: scattered clouds at 1300 feet AGL
broken clouds at 3000 feet AGL
Weather: no significant weather forecast for this period
Text: PROB30
Forecast period: 1200 UTC 25 September 2020 to 0600 UTC 26 September 2020
Forecast type: TEMPORARY: The following changes expected for less than half the time period
Visibility: 4 miles (6 km)
Ceiling: 1200 feet AGL
Clouds: scattered clouds at 800 feet AGL
broken clouds at 1200 feet AGL
Weather: -RA  (light rain)